createdAt,value
2023-07-17T00:00:02.570Z,20.01
2023-07-17T00:00:16.673Z,20.01
2023-07-17T00:00:32.094Z,20.02
2023-07-17T00:00:48.113Z,20.02
2023-07-17T00:01:00.151Z,20.05
2023-07-17T00:01:12.157Z,20.02
2023-07-17T00:01:24.333Z,20.00
2023-07-17T00:01:36.458Z,20.00
2023-07-17T00:01:48.551Z,19.98
2023-07-17T00:02:00.584Z,20.00
2023-07-17T00:02:12.581Z,20.00
2023-07-17T00:02:25.166Z,20.02
2023-07-17T00:02:37.159Z,20.00
2023-07-17T00:02:49.225Z,19.98
2023-07-17T00:03:01.391Z,20.02
2023-07-17T00:03:13.663Z,20.03
2023-07-17T00:03:26.080Z,20.02
2023-07-17T00:03:38.204Z,20.03
2023-07-17T00:03:51.326Z,20.03
2023-07-17T00:04:03.561Z,19.94
2023-07-17T00:04:15.631Z,19.94
2023-07-17T00:04:27.620Z,19.94
2023-07-17T00:04:39.566Z,19.95
2023-07-17T00:04:51.752Z,19.92
2023-07-17T00:05:05.315Z,19.92
2023-07-17T00:05:17.700Z,19.88
2023-07-17T00:05:29.682Z,19.86
2023-07-17T00:05:41.700Z,19.84
2023-07-17T00:05:53.717Z,19.85
2023-07-17T00:06:06.125Z,19.83
2023-07-17T00:06:18.166Z,19.84
2023-07-17T00:06:30.834Z,19.83
2023-07-17T00:06:42.797Z,19.81
2023-07-17T00:06:54.763Z,19.82
2023-07-17T00:07:06.752Z,19.79
2023-07-17T00:07:18.698Z,19.77
2023-07-17T00:07:31.351Z,19.74
2023-07-17T00:07:43.458Z,19.77
2023-07-17T00:07:55.423Z,19.79
2023-07-17T00:08:07.596Z,19.82
2023-07-17T00:08:19.615Z,19.79
2023-07-17T00:08:31.709Z,19.79
2023-07-17T00:08:43.692Z,19.76
2023-07-17T00:08:55.622Z,19.78
2023-07-17T00:09:07.853Z,19.79
2023-07-17T00:09:19.776Z,19.81
2023-07-17T00:09:31.880Z,19.82
2023-07-17T00:09:44.575Z,19.83
2023-07-17T00:09:56.698Z,19.83
2023-07-17T00:10:10.272Z,19.85
2023-07-17T00:10:22.342Z,19.84
2023-07-17T00:10:34.302Z,19.84
2023-07-17T00:10:46.338Z,19.83
2023-07-17T00:10:59.305Z,19.83
2023-07-17T00:11:11.275Z,19.80
2023-07-17T00:11:23.632Z,19.80
2023-07-17T00:11:35.626Z,19.81
2023-07-17T00:11:47.646Z,19.81
2023-07-17T00:11:59.643Z,19.81
2023-07-17T00:12:11.623Z,19.83
2023-07-17T00:12:23.638Z,19.83
2023-07-17T00:12:37.403Z,19.86
2023-07-17T00:12:49.449Z,19.87
2023-07-17T00:13:01.510Z,19.89
2023-07-17T00:13:13.531Z,19.88
2023-07-17T00:13:26.196Z,19.89
2023-07-17T00:13:38.151Z,19.89
2023-07-17T00:13:50.120Z,19.89
2023-07-17T00:14:02.139Z,19.89
2023-07-17T00:14:14.569Z,19.87
2023-07-17T00:14:26.673Z,19.87
2023-07-17T00:14:38.714Z,19.89
2023-07-17T00:14:50.744Z,19.90
2023-07-17T00:15:06.202Z,19.91
2023-07-17T00:15:18.191Z,19.94
2023-07-17T00:15:30.173Z,19.97
2023-07-17T00:15:43.074Z,19.99
2023-07-17T00:15:55.256Z,20.00
2023-07-17T00:16:07.213Z,20.02
2023-07-17T00:16:20.962Z,20.02
2023-07-17T00:16:36.295Z,20.03
2023-07-17T00:16:48.581Z,20.05
2023-07-17T00:17:00.568Z,20.04
2023-07-17T00:17:13.480Z,20.04
2023-07-17T00:17:25.737Z,20.05
2023-07-17T00:17:37.884Z,20.06
2023-07-17T00:17:49.968Z,20.07
2023-07-17T00:18:02.193Z,20.09
2023-07-17T00:18:14.385Z,20.09
2023-07-17T00:18:26.384Z,20.11
2023-07-17T00:18:39.226Z,20.13
2023-07-17T00:18:51.166Z,20.14
2023-07-17T00:19:03.138Z,20.14
2023-07-17T00:19:15.060Z,20.14
2023-07-17T00:19:27.209Z,20.17
2023-07-17T00:19:40.113Z,20.17
2023-07-17T00:19:57.154Z,20.18
2023-07-17T00:20:12.831Z,20.19
2023-07-17T00:20:24.786Z,20.20
2023-07-17T00:20:36.806Z,20.22
2023-07-17T00:20:48.861Z,20.22
2023-07-17T00:21:00.928Z,20.23
2023-07-17T00:21:12.900Z,20.22
2023-07-17T00:21:25.223Z,20.22
2023-07-17T00:21:37.225Z,20.22
2023-07-17T00:21:49.192Z,20.20
2023-07-17T00:22:01.232Z,20.20
2023-07-17T00:22:13.192Z,20.18
2023-07-17T00:22:25.677Z,20.20
2023-07-17T00:22:37.860Z,20.21
2023-07-17T00:22:49.846Z,20.22
2023-07-17T00:23:02.051Z,20.23
2023-07-17T00:23:14.122Z,20.24
2023-07-17T00:23:26.155Z,20.23
2023-07-17T00:23:38.130Z,20.24
2023-07-17T00:23:50.184Z,20.23
2023-07-17T00:24:02.121Z,20.26
2023-07-17T00:24:14.410Z,20.27
2023-07-17T00:24:26.428Z,20.26
2023-07-17T00:24:38.356Z,20.23
2023-07-17T00:24:53.754Z,20.23
2023-07-17T00:25:06.003Z,20.21
2023-07-17T00:25:18.387Z,20.23
2023-07-17T00:25:30.506Z,20.26
2023-07-17T00:25:42.453Z,20.26
2023-07-17T00:25:54.429Z,20.27
2023-07-17T00:26:06.443Z,20.26
2023-07-17T00:26:18.658Z,20.23
2023-07-17T00:26:31.379Z,20.23
2023-07-17T00:26:43.667Z,20.21
2023-07-17T00:26:55.715Z,20.24
2023-07-17T00:27:07.664Z,20.25
2023-07-17T00:27:20.629Z,20.24
2023-07-17T00:27:32.894Z,20.25
2023-07-17T00:27:44.850Z,20.24
2023-07-17T00:27:56.879Z,20.25
2023-07-17T00:28:08.840Z,20.24
2023-07-17T00:28:20.768Z,20.25
2023-07-17T00:28:32.888Z,20.26
2023-07-17T00:28:44.849Z,20.27
2023-07-17T00:29:36.370Z,20.34
2023-07-17T00:29:51.540Z,20.34
2023-07-17T00:30:04.276Z,20.34
2023-07-17T00:30:16.317Z,20.34
2023-07-17T00:30:31.881Z,20.36
2023-07-17T00:30:44.263Z,20.34
2023-07-17T00:30:56.330Z,20.35
2023-07-17T00:31:08.436Z,20.34
2023-07-17T00:31:20.913Z,20.37
2023-07-17T00:31:33.137Z,20.38
2023-07-17T00:31:45.234Z,20.40
2023-07-17T00:31:58.754Z,20.41
2023-07-17T00:32:14.781Z,20.43
2023-07-17T00:32:26.876Z,20.44
2023-07-17T00:32:39.345Z,20.45
2023-07-17T00:32:51.935Z,20.45
2023-07-17T00:33:04.024Z,20.45
2023-07-17T00:33:16.350Z,20.44
2023-07-17T00:33:28.600Z,20.44
2023-07-17T00:33:40.621Z,20.44
2023-07-17T00:33:52.563Z,20.45
2023-07-17T00:34:04.541Z,20.47
2023-07-17T00:34:17.004Z,20.47
2023-07-17T00:34:28.963Z,20.48
2023-07-17T00:34:42.616Z,20.43
2023-07-17T00:34:54.571Z,20.43
2023-07-17T00:35:06.975Z,20.43
2023-07-17T00:35:18.984Z,20.39
2023-07-17T00:35:30.952Z,20.38
2023-07-17T00:35:43.027Z,20.40
2023-07-17T00:35:55.012Z,20.38
2023-07-17T00:36:07.230Z,20.39
2023-07-17T00:36:19.170Z,20.41
2023-07-17T00:36:31.169Z,20.42
2023-07-17T00:36:43.197Z,20.42
2023-07-17T00:36:55.297Z,20.43
2023-07-17T00:37:07.763Z,20.43
2023-07-17T00:37:19.927Z,20.45
2023-07-17T00:37:31.898Z,20.47
2023-07-17T00:37:44.315Z,20.46
2023-07-17T00:37:56.297Z,20.46
2023-07-17T00:38:08.298Z,20.48
2023-07-17T00:38:20.753Z,20.48
2023-07-17T00:38:32.710Z,20.46
2023-07-17T00:38:44.902Z,20.45
2023-07-17T00:38:56.863Z,20.43
2023-07-17T00:39:08.945Z,20.43
2023-07-17T00:39:21.528Z,20.43
2023-07-17T00:39:34.204Z,20.43
2023-07-17T00:39:46.462Z,20.43
2023-07-17T00:39:58.827Z,20.43
2023-07-17T00:40:11.061Z,20.42
2023-07-17T00:40:23.069Z,20.42
2023-07-17T00:40:39.986Z,20.42
2023-07-17T00:40:51.979Z,20.41
2023-07-17T00:41:04.164Z,20.39
2023-07-17T00:41:16.310Z,20.32
2023-07-17T00:41:28.656Z,20.33
2023-07-17T00:41:40.678Z,20.35
2023-07-17T00:41:52.684Z,20.34
2023-07-17T00:42:04.968Z,20.37
2023-07-17T00:42:16.947Z,20.38
2023-07-17T00:42:29.001Z,20.39
2023-07-17T00:42:41.295Z,20.39
2023-07-17T00:42:58.817Z,20.37
2023-07-17T00:43:13.513Z,20.40
2023-07-17T00:43:25.529Z,20.38
2023-07-17T00:43:37.750Z,20.37
2023-07-17T00:43:49.739Z,20.39
2023-07-17T00:44:01.736Z,20.39
2023-07-17T00:44:13.866Z,20.40
2023-07-17T00:44:26.034Z,20.40
2023-07-17T00:44:39.272Z,20.40
2023-07-17T00:44:52.088Z,20.39
2023-07-17T00:45:04.723Z,20.39
2023-07-17T00:45:16.765Z,20.40
2023-07-17T00:45:32.818Z,20.39
2023-07-17T00:45:45.979Z,20.39
2023-07-17T00:45:58.500Z,20.39
2023-07-17T00:46:10.810Z,20.39
2023-07-17T00:46:22.976Z,20.40
2023-07-17T00:46:35.390Z,20.39
2023-07-17T00:46:49.735Z,20.41
2023-07-17T00:47:01.884Z,20.42
2023-07-17T00:47:14.074Z,20.41
2023-07-17T00:47:26.170Z,20.41
2023-07-17T00:47:38.532Z,20.43
2023-07-17T00:47:50.621Z,20.43
2023-07-17T00:48:04.490Z,20.43
2023-07-17T00:48:16.575Z,20.42
2023-07-17T00:48:28.652Z,20.43
2023-07-17T00:48:40.876Z,20.40
2023-07-17T00:48:52.985Z,20.40
2023-07-17T00:49:07.560Z,20.39
2023-07-17T00:49:21.718Z,20.39
2023-07-17T00:49:34.604Z,20.39
2023-07-17T00:49:49.024Z,20.39
2023-07-17T00:50:02.432Z,20.39
2023-07-17T00:50:14.498Z,20.39
2023-07-17T00:50:28.272Z,20.41
2023-07-17T00:50:40.706Z,20.42
2023-07-17T00:50:52.723Z,20.43
2023-07-17T00:51:04.845Z,20.43
2023-07-17T00:51:17.175Z,20.43
2023-07-17T00:51:29.410Z,20.44
2023-07-17T00:51:42.586Z,20.44
2023-07-17T00:51:57.355Z,20.44
2023-07-17T00:52:11.261Z,20.44
2023-07-17T00:52:23.862Z,20.44
2023-07-17T00:52:39.715Z,20.43
2023-07-17T00:52:51.881Z,20.43
2023-07-17T00:53:05.074Z,20.42
2023-07-17T00:53:17.667Z,20.42
2023-07-17T00:53:29.803Z,20.41
2023-07-17T00:53:43.768Z,20.41
2023-07-17T00:53:56.643Z,20.40
2023-07-17T00:54:11.150Z,20.39
2023-07-17T00:54:23.557Z,20.32
2023-07-17T00:54:36.458Z,20.30
2023-07-17T00:54:49.635Z,20.30
2023-07-17T00:55:02.284Z,20.26
2023-07-17T00:55:15.658Z,20.24
2023-07-17T00:55:27.901Z,20.24
2023-07-17T00:55:39.888Z,20.25
2023-07-17T00:55:51.868Z,20.25
2023-07-17T00:56:04.003Z,20.26
2023-07-17T00:56:16.566Z,20.27
2023-07-17T00:56:29.904Z,20.28
2023-07-17T00:56:43.232Z,20.30
2023-07-17T00:56:58.087Z,20.31
2023-07-17T00:57:12.413Z,20.28
2023-07-17T00:57:26.120Z,20.26
2023-07-17T00:57:39.049Z,20.28
2023-07-17T00:57:52.808Z,20.28
2023-07-17T00:58:05.442Z,20.26
2023-07-17T00:58:17.535Z,20.25
2023-07-17T00:58:29.648Z,20.22
2023-07-17T00:58:41.993Z,20.21
2023-07-17T00:58:54.011Z,20.21
2023-07-17T00:59:06.533Z,20.17
2023-07-17T00:59:18.752Z,20.15
2023-07-17T00:59:31.691Z,20.14
2023-07-17T00:59:43.810Z,20.11
2023-07-17T00:59:55.937Z,20.08
2023-07-17T01:00:10.103Z,20.10
2023-07-17T01:00:24.410Z,20.09
2023-07-17T01:00:37.432Z,20.13
2023-07-17T01:00:49.635Z,20.17
2023-07-17T01:01:04.041Z,20.20
2023-07-17T01:01:16.613Z,20.20
2023-07-17T01:01:29.468Z,20.21
2023-07-17T01:01:42.952Z,20.22
2023-07-17T01:01:55.499Z,20.21
2023-07-17T01:02:09.533Z,20.19
2023-07-17T01:02:23.474Z,20.18
2023-07-17T01:02:40.320Z,20.17
2023-07-17T01:02:54.327Z,20.18
2023-07-17T01:03:06.618Z,20.19
2023-07-17T01:03:18.798Z,20.16
2023-07-17T01:03:31.737Z,20.18
2023-07-17T01:03:43.823Z,20.20
2023-07-17T01:03:56.412Z,20.21
2023-07-17T01:04:09.718Z,20.22
2023-07-17T01:04:21.671Z,20.23
2023-07-17T01:04:33.639Z,20.24
2023-07-17T01:04:48.781Z,20.23
2023-07-17T01:05:00.848Z,20.26
2023-07-17T01:05:12.842Z,20.26
2023-07-17T01:05:25.059Z,20.29
2023-07-17T01:05:37.401Z,20.30
2023-07-17T01:05:49.370Z,20.32
2023-07-17T01:06:01.392Z,20.32
2023-07-17T01:06:13.373Z,20.32
2023-07-17T01:06:28.460Z,20.28
2023-07-17T01:06:40.541Z,20.28
2023-07-17T01:06:52.560Z,20.26
2023-07-17T01:07:04.803Z,20.27
2023-07-17T01:07:17.146Z,20.26
2023-07-17T01:07:29.068Z,20.25
2023-07-17T01:07:41.244Z,20.25
2023-07-17T01:07:55.458Z,20.26
2023-07-17T01:08:07.458Z,20.26
2023-07-17T01:08:19.413Z,20.26
2023-07-17T01:08:32.388Z,20.27
2023-07-17T01:08:44.488Z,20.27
2023-07-17T01:08:56.523Z,20.28
2023-07-17T01:09:11.008Z,20.28
2023-07-17T01:09:23.172Z,20.29
2023-07-17T01:09:36.660Z,20.26
2023-07-17T01:09:49.367Z,20.24
2023-07-17T01:10:01.705Z,20.25
2023-07-17T01:10:13.765Z,20.25
2023-07-17T01:10:26.884Z,20.27
2023-07-17T01:10:38.896Z,20.30
2023-07-17T01:10:51.622Z,20.30
2023-07-17T01:11:03.813Z,20.31
2023-07-17T01:11:16.936Z,20.30
2023-07-17T01:11:29.021Z,20.31
2023-07-17T01:11:41.075Z,20.32
2023-07-17T01:11:53.059Z,20.32
2023-07-17T01:12:05.424Z,20.33
2023-07-17T01:12:17.401Z,20.33
2023-07-17T01:12:29.601Z,20.33
2023-07-17T01:12:41.656Z,20.33
2023-07-17T01:12:53.728Z,20.32
2023-07-17T01:13:05.690Z,20.32
2023-07-17T01:13:17.716Z,20.33
2023-07-17T01:13:29.650Z,20.32
2023-07-17T01:13:45.749Z,20.31
2023-07-17T01:13:57.719Z,20.31
2023-07-17T01:14:19.699Z,20.31
2023-07-17T01:14:31.696Z,20.30
2023-07-17T01:14:43.748Z,20.30
2023-07-17T01:14:55.884Z,20.28
2023-07-17T01:15:08.229Z,20.24
2023-07-17T01:15:20.298Z,20.24
2023-07-17T01:15:32.245Z,20.24
2023-07-17T01:15:44.207Z,20.24
2023-07-17T01:15:56.243Z,20.23
2023-07-17T01:16:08.679Z,20.25
2023-07-17T01:16:20.674Z,20.26
2023-07-17T01:16:32.721Z,20.25
2023-07-17T01:16:46.977Z,20.27
2023-07-17T01:16:59.055Z,20.26
2023-07-17T01:17:11.107Z,20.25
2023-07-17T01:17:23.852Z,20.27
2023-07-17T01:17:35.841Z,20.29
2023-07-17T01:17:47.904Z,20.28
2023-07-17T01:17:59.973Z,20.29
2023-07-17T01:18:12.021Z,20.30
2023-07-17T01:18:23.983Z,20.31
2023-07-17T01:18:35.962Z,20.33
2023-07-17T01:18:47.932Z,20.27
2023-07-17T01:18:59.939Z,20.26
2023-07-17T01:19:11.881Z,20.26
2023-07-17T01:19:23.854Z,20.24
2023-07-17T01:19:35.790Z,20.24
2023-07-17T01:19:47.796Z,20.24
2023-07-17T01:19:59.793Z,20.25
2023-07-17T01:20:12.091Z,20.27
2023-07-17T01:20:24.142Z,20.30
2023-07-17T01:20:36.145Z,20.32
2023-07-17T01:20:49.546Z,20.33
2023-07-17T01:21:02.657Z,20.33
2023-07-17T01:21:18.217Z,20.37
2023-07-17T01:21:36.345Z,20.37
2023-07-17T01:21:57.803Z,20.35
2023-07-17T01:22:23.030Z,20.37
2023-07-17T01:22:42.675Z,20.33
2023-07-17T01:22:57.766Z,20.34
2023-07-17T01:23:10.431Z,20.34
2023-07-17T01:23:22.414Z,20.33
2023-07-17T01:23:34.614Z,20.32
2023-07-17T01:23:46.713Z,20.31
2023-07-17T01:23:58.686Z,20.30
2023-07-17T01:24:10.712Z,20.28
2023-07-17T01:24:22.695Z,20.29
2023-07-17T01:24:34.700Z,20.23
2023-07-17T01:24:46.742Z,20.22
2023-07-17T01:24:58.727Z,20.21
2023-07-17T01:25:10.695Z,20.20
2023-07-17T01:25:22.797Z,20.16
2023-07-17T01:25:35.189Z,20.17
2023-07-17T01:25:47.252Z,20.18
2023-07-17T01:25:59.560Z,20.17
2023-07-17T01:26:13.562Z,20.18
2023-07-17T01:26:25.576Z,20.19
2023-07-17T01:26:37.571Z,20.20
2023-07-17T01:26:49.664Z,20.21
2023-07-17T01:27:01.726Z,20.23
2023-07-17T01:27:14.251Z,20.20
2023-07-17T01:27:26.251Z,20.21
2023-07-17T01:27:38.238Z,20.23
2023-07-17T01:27:50.273Z,20.24
2023-07-17T01:28:02.297Z,20.24
2023-07-17T01:28:14.473Z,20.24
2023-07-17T01:28:26.887Z,20.20
2023-07-17T01:28:39.182Z,20.19
2023-07-17T01:28:51.273Z,20.20
2023-07-17T01:29:03.422Z,20.21
2023-07-17T01:29:15.797Z,20.20
2023-07-17T01:29:27.874Z,20.22
2023-07-17T01:29:39.874Z,20.21
2023-07-17T01:29:51.878Z,20.23
2023-07-17T01:30:06.152Z,20.23
2023-07-17T01:30:18.502Z,20.24
2023-07-17T01:30:30.531Z,20.25
2023-07-17T01:30:42.612Z,20.27
2023-07-17T01:30:54.657Z,20.26
2023-07-17T01:31:07.213Z,20.26
2023-07-17T01:31:19.738Z,20.25
2023-07-17T01:31:32.191Z,20.28
2023-07-17T01:31:44.416Z,20.27
2023-07-17T01:31:56.387Z,20.28
2023-07-17T01:32:08.623Z,20.29
2023-07-17T01:32:21.862Z,20.29
2023-07-17T01:32:34.195Z,20.30
2023-07-17T01:32:46.226Z,20.29
2023-07-17T01:32:58.280Z,20.26
2023-07-17T01:33:10.561Z,20.26
2023-07-17T01:33:22.745Z,20.28
2023-07-17T01:33:35.330Z,20.27
2023-07-17T01:33:47.401Z,20.28
2023-07-17T01:33:59.476Z,20.29
2023-07-17T01:34:11.482Z,20.29
2023-07-17T01:34:23.584Z,20.29
2023-07-17T01:34:36.789Z,20.32
2023-07-17T01:34:48.798Z,20.34
2023-07-17T01:35:00.731Z,20.32
2023-07-17T01:35:12.775Z,20.30
2023-07-17T01:35:24.771Z,20.31
2023-07-17T01:35:36.711Z,20.30
2023-07-17T01:35:48.646Z,20.31
2023-07-17T01:36:01.910Z,20.32
2023-07-17T01:36:14.925Z,20.31
2023-07-17T01:36:27.683Z,20.30
2023-07-17T01:36:39.692Z,20.31
2023-07-17T01:36:52.766Z,20.32
2023-07-17T01:37:05.367Z,20.30
2023-07-17T01:37:17.372Z,20.25
2023-07-17T01:37:30.002Z,20.28
2023-07-17T01:37:43.946Z,20.29
2023-07-17T01:37:55.947Z,20.29
2023-07-17T01:38:09.273Z,20.31
2023-07-17T01:38:21.322Z,20.32
2023-07-17T01:38:34.776Z,20.34
2023-07-17T01:38:46.888Z,20.35
2023-07-17T01:38:58.920Z,20.37
2023-07-17T01:39:11.107Z,20.37
2023-07-17T01:39:25.628Z,20.38
2023-07-17T01:39:38.277Z,20.40
2023-07-17T01:39:50.280Z,20.40
2023-07-17T01:40:03.780Z,20.42
2023-07-17T01:40:17.130Z,20.43
2023-07-17T01:40:29.080Z,20.44
2023-07-17T01:40:41.066Z,20.42
2023-07-17T01:40:53.564Z,20.41
2023-07-17T01:41:05.533Z,20.41
2023-07-17T01:41:17.765Z,20.38
2023-07-17T01:41:30.082Z,20.38
2023-07-17T01:41:42.058Z,20.34
2023-07-17T01:41:54.194Z,20.34
2023-07-17T01:42:06.319Z,20.31
2023-07-17T01:42:18.348Z,20.34
2023-07-17T01:42:30.356Z,20.34
2023-07-17T01:42:42.325Z,20.35
2023-07-17T01:42:54.303Z,20.34
2023-07-17T01:43:06.452Z,20.31
2023-07-17T01:43:18.641Z,20.35
2023-07-17T01:43:30.651Z,20.33
2023-07-17T01:43:42.646Z,20.35
2023-07-17T01:43:54.581Z,20.34
2023-07-17T01:44:06.621Z,20.34
2023-07-17T01:44:18.538Z,20.35
2023-07-17T01:44:31.903Z,20.37
2023-07-17T01:44:43.848Z,20.37
2023-07-17T01:44:55.894Z,20.38
2023-07-17T01:45:08.631Z,20.39
2023-07-17T01:45:20.764Z,20.38
2023-07-17T01:45:32.704Z,20.38
2023-07-17T01:45:44.697Z,20.39
2023-07-17T01:45:56.660Z,20.40
2023-07-17T01:46:09.327Z,20.35
2023-07-17T01:46:21.412Z,20.37
2023-07-17T01:46:34.133Z,20.38
2023-07-17T01:46:46.301Z,20.37
2023-07-17T01:46:59.560Z,20.37
2023-07-17T01:47:11.666Z,20.32
2023-07-17T01:47:24.802Z,20.32
2023-07-17T01:47:37.304Z,20.32
2023-07-17T01:47:50.645Z,20.32
2023-07-17T01:48:02.768Z,20.30
2023-07-17T01:48:15.884Z,20.29
2023-07-17T01:48:28.029Z,20.26
2023-07-17T01:48:40.031Z,20.26
2023-07-17T01:48:52.060Z,20.30
2023-07-17T01:49:04.260Z,20.30
2023-07-17T01:49:16.402Z,20.31
2023-07-17T01:49:28.432Z,20.30
2023-07-17T01:49:41.992Z,20.31
2023-07-17T01:49:53.968Z,20.28
2023-07-17T01:50:06.994Z,20.30
2023-07-17T01:50:19.421Z,20.27
2023-07-17T01:50:31.419Z,20.25
2023-07-17T01:50:43.421Z,20.22
2023-07-17T01:50:55.405Z,20.21
2023-07-17T01:51:07.470Z,20.22
2023-07-17T01:51:19.629Z,20.23
2023-07-17T01:51:31.809Z,20.21
2023-07-17T01:51:43.745Z,20.23
2023-07-17T01:51:55.775Z,20.20
2023-07-17T01:52:10.085Z,20.18
2023-07-17T01:52:22.065Z,20.18
2023-07-17T01:52:34.049Z,20.15
2023-07-17T01:52:46.030Z,20.14
2023-07-17T01:52:58.106Z,20.15
2023-07-17T01:53:10.206Z,20.16
2023-07-17T01:53:22.750Z,20.17
2023-07-17T01:53:34.823Z,20.16
2023-07-17T01:53:46.805Z,20.16
2023-07-17T01:53:58.882Z,20.18
2023-07-17T01:54:10.900Z,20.18
2023-07-17T01:54:22.909Z,20.19
2023-07-17T01:54:35.009Z,20.22
2023-07-17T01:54:46.944Z,20.22
2023-07-17T01:54:59.436Z,20.22
2023-07-17T01:55:11.422Z,20.21
2023-07-17T01:55:23.414Z,20.18
2023-07-17T01:55:35.403Z,20.18
2023-07-17T01:55:47.804Z,20.19
2023-07-17T01:56:01.528Z,20.19
2023-07-17T01:56:13.869Z,20.20
2023-07-17T01:56:26.403Z,20.23
2023-07-17T01:56:38.516Z,20.24
2023-07-17T01:56:50.512Z,20.25
2023-07-17T01:57:02.486Z,20.25
2023-07-17T01:57:14.496Z,20.26
2023-07-17T01:57:27.009Z,20.24
2023-07-17T01:57:39.329Z,20.27
2023-07-17T01:57:51.373Z,20.27
2023-07-17T01:58:03.372Z,20.29
2023-07-17T01:58:15.609Z,20.27
2023-07-17T01:58:28.007Z,20.28
2023-07-17T01:58:40.022Z,20.26
2023-07-17T01:58:52.206Z,20.26
2023-07-17T01:59:04.154Z,20.25
2023-07-17T01:59:16.082Z,20.26
2023-07-17T01:59:28.165Z,20.26
2023-07-17T01:59:40.157Z,20.25
2023-07-17T01:59:52.709Z,20.25
2023-07-17T02:00:04.975Z,20.25
2023-07-17T02:00:17.194Z,20.24
2023-07-17T02:00:29.203Z,20.23
2023-07-17T02:00:41.851Z,20.19
2023-07-17T02:00:57.467Z,20.17
2023-07-17T02:01:09.417Z,20.18
2023-07-17T02:01:22.579Z,20.20
2023-07-17T02:01:34.959Z,20.21
2023-07-17T02:01:46.947Z,20.22
2023-07-17T02:01:58.918Z,20.22
2023-07-17T02:02:11.093Z,20.23
2023-07-17T02:02:23.124Z,20.22
2023-07-17T02:02:35.212Z,20.20
2023-07-17T02:02:47.201Z,20.17
2023-07-17T02:02:59.333Z,20.18
2023-07-17T02:03:11.757Z,20.18
2023-07-17T02:03:24.086Z,20.19
2023-07-17T02:03:37.387Z,20.20
2023-07-17T02:03:49.628Z,20.19
2023-07-17T02:04:02.430Z,20.18
2023-07-17T02:04:14.634Z,20.17
2023-07-17T02:04:26.601Z,20.18
2023-07-17T02:04:38.649Z,20.17
2023-07-17T02:04:50.770Z,20.16
2023-07-17T02:05:03.481Z,20.17
2023-07-17T02:05:15.593Z,20.19
2023-07-17T02:05:27.702Z,20.20
2023-07-17T02:05:39.707Z,20.19
2023-07-17T02:05:51.799Z,20.22
2023-07-17T02:06:03.933Z,20.21
2023-07-17T02:06:17.897Z,20.21
2023-07-17T02:06:30.034Z,20.20
2023-07-17T02:06:42.144Z,20.20
2023-07-17T02:06:54.377Z,20.23
2023-07-17T02:07:06.462Z,20.22
2023-07-17T02:07:18.447Z,20.17
2023-07-17T02:07:30.510Z,20.16
2023-07-17T02:07:42.441Z,20.15
2023-07-17T02:07:54.423Z,20.15
2023-07-17T02:08:07.593Z,20.15
2023-07-17T02:08:19.588Z,20.16
2023-07-17T02:08:31.518Z,20.15
2023-07-17T02:08:43.449Z,20.14
2023-07-17T02:08:55.757Z,20.15
2023-07-17T02:09:08.135Z,20.15
2023-07-17T02:09:20.182Z,20.17
2023-07-17T02:09:32.248Z,20.19
2023-07-17T02:09:44.209Z,20.20
2023-07-17T02:09:56.177Z,20.20
2023-07-17T02:10:08.538Z,20.20
2023-07-17T02:10:20.526Z,20.20
2023-07-17T02:10:32.590Z,20.20
2023-07-17T02:10:45.415Z,20.21
2023-07-17T02:10:57.470Z,20.21
2023-07-17T02:11:09.818Z,20.20
2023-07-17T02:11:21.970Z,20.20
2023-07-17T02:11:33.955Z,20.14
2023-07-17T02:11:45.940Z,20.14
2023-07-17T02:11:57.956Z,20.13
2023-07-17T02:12:10.194Z,20.13
2023-07-17T02:12:22.223Z,20.12
2023-07-17T02:12:34.336Z,20.12
2023-07-17T02:12:46.303Z,20.11
2023-07-17T02:12:58.371Z,20.10
2023-07-17T02:13:11.433Z,20.08
2023-07-17T02:13:23.354Z,20.08
2023-07-17T02:13:35.299Z,20.04
2023-07-17T02:13:47.543Z,20.05
2023-07-17T02:13:59.516Z,20.06
2023-07-17T02:14:12.058Z,20.04
2023-07-17T02:14:24.100Z,20.05
2023-07-17T02:14:36.182Z,20.04
2023-07-17T02:14:48.206Z,20.07
2023-07-17T02:15:00.299Z,20.07
2023-07-17T02:15:13.741Z,20.10
2023-07-17T02:15:25.732Z,20.12
2023-07-17T02:15:37.783Z,20.12
2023-07-17T02:15:49.777Z,20.13
2023-07-17T02:16:01.866Z,20.10
2023-07-17T02:16:13.855Z,20.09
2023-07-17T02:16:26.818Z,20.05
2023-07-17T02:16:39.042Z,20.05
2023-07-17T02:16:51.111Z,20.07
2023-07-17T02:17:03.206Z,20.09
2023-07-17T02:17:15.279Z,20.08
2023-07-17T02:17:27.515Z,20.07
2023-07-17T02:17:40.161Z,20.07
2023-07-17T02:17:52.725Z,20.08
2023-07-17T02:18:04.882Z,20.07
2023-07-17T02:18:16.929Z,20.05
2023-07-17T02:18:31.137Z,20.01
2023-07-17T02:18:43.101Z,20.00
2023-07-17T02:18:55.103Z,19.98
2023-07-17T02:19:08.067Z,20.01
2023-07-17T02:19:20.247Z,20.00
2023-07-17T02:19:32.211Z,20.00
2023-07-17T02:19:44.131Z,19.99
2023-07-17T02:19:56.045Z,19.95
2023-07-17T02:20:11.700Z,19.94
2023-07-17T02:20:24.390Z,19.94
2023-07-17T02:20:36.685Z,19.98
2023-07-17T02:20:51.981Z,20.01
2023-07-17T02:21:05.338Z,20.02
2023-07-17T02:21:17.594Z,20.03
2023-07-17T02:21:29.769Z,20.03
2023-07-17T02:21:41.725Z,20.04
2023-07-17T02:21:53.686Z,20.03
2023-07-17T02:22:05.871Z,20.03
2023-07-17T02:22:17.841Z,19.98
2023-07-17T02:22:29.830Z,19.94
2023-07-17T02:22:42.305Z,19.93
2023-07-17T02:22:54.398Z,19.94
2023-07-17T02:23:06.480Z,19.92
2023-07-17T02:23:18.910Z,19.87
2023-07-17T02:23:31.312Z,19.85
2023-07-17T02:23:43.284Z,19.86
2023-07-17T02:23:55.349Z,19.86
2023-07-17T02:24:07.356Z,19.87
2023-07-17T02:24:20.224Z,19.86
2023-07-17T02:24:32.291Z,19.88
2023-07-17T02:24:44.288Z,19.86
2023-07-17T02:24:56.282Z,19.85
2023-07-17T02:25:08.917Z,19.87
2023-07-17T02:25:21.145Z,19.87
2023-07-17T02:25:33.115Z,19.90
2023-07-17T02:25:45.408Z,19.91
2023-07-17T02:25:57.732Z,19.91
2023-07-17T02:26:12.161Z,19.89
2023-07-17T02:26:24.323Z,19.90
2023-07-17T02:26:36.285Z,19.90
2023-07-17T02:26:48.712Z,19.87
2023-07-17T02:27:02.506Z,19.88
2023-07-17T02:27:14.430Z,19.89
2023-07-17T02:27:26.787Z,19.89
2023-07-17T02:27:38.803Z,19.89
2023-07-17T02:27:50.829Z,19.89
2023-07-17T02:28:02.818Z,19.88
2023-07-17T02:28:16.484Z,19.88
2023-07-17T02:28:28.717Z,19.87
2023-07-17T02:28:40.681Z,19.84
2023-07-17T02:28:53.066Z,19.83
2023-07-17T02:29:05.347Z,19.80
2023-07-17T02:29:17.362Z,19.76
2023-07-17T02:29:29.871Z,19.78
2023-07-17T02:29:42.497Z,19.79
2023-07-17T02:29:55.278Z,19.79
2023-07-17T02:30:07.700Z,19.78
2023-07-17T02:30:20.202Z,19.77
2023-07-17T02:30:32.329Z,19.74
2023-07-17T02:30:44.394Z,19.74
2023-07-17T02:30:57.110Z,19.75
2023-07-17T02:31:09.121Z,19.75
2023-07-17T02:31:22.804Z,19.73
2023-07-17T02:31:35.571Z,19.73
2023-07-17T02:31:48.720Z,19.73
2023-07-17T02:32:01.060Z,19.72
2023-07-17T02:32:13.377Z,19.72
2023-07-17T02:32:26.141Z,19.73
2023-07-17T02:32:39.042Z,19.68
2023-07-17T02:32:51.062Z,19.69
2023-07-17T02:33:04.183Z,19.68
2023-07-17T02:33:16.233Z,19.66
2023-07-17T02:33:28.342Z,19.68
2023-07-17T02:33:40.270Z,19.68
2023-07-17T02:33:52.241Z,19.70
2023-07-17T02:34:04.569Z,19.67
2023-07-17T02:34:16.675Z,19.66
2023-07-17T02:34:28.663Z,19.67
2023-07-17T02:34:40.586Z,19.67
2023-07-17T02:34:52.642Z,19.67
2023-07-17T02:35:05.652Z,19.67
2023-07-17T02:35:17.680Z,19.66
2023-07-17T02:35:29.759Z,19.67
2023-07-17T02:35:41.755Z,19.67
2023-07-17T02:35:53.694Z,19.66
2023-07-17T02:36:05.963Z,19.67
2023-07-17T02:36:17.958Z,19.68
2023-07-17T02:36:30.163Z,19.66
2023-07-17T02:36:43.338Z,19.64
2023-07-17T02:36:55.371Z,19.64
2023-07-17T02:37:16.802Z,19.65
2023-07-17T02:37:29.023Z,19.62
2023-07-17T02:37:41.605Z,19.62
2023-07-17T02:37:53.709Z,19.61
2023-07-17T02:38:06.566Z,19.60
2023-07-17T02:38:18.562Z,19.59
2023-07-17T02:38:30.968Z,19.58
2023-07-17T02:38:42.925Z,19.57
2023-07-17T02:38:54.962Z,19.56
2023-07-17T02:39:06.962Z,19.56
2023-07-17T02:39:19.070Z,19.55
2023-07-17T02:39:31.016Z,19.53
2023-07-17T02:39:43.340Z,19.51
2023-07-17T02:39:55.381Z,19.49
2023-07-17T02:40:13.411Z,19.50
2023-07-17T02:40:25.454Z,19.49
2023-07-17T02:40:37.718Z,19.49
2023-07-17T02:40:49.633Z,19.50
2023-07-17T02:41:02.126Z,19.50
2023-07-17T02:41:15.738Z,19.49
2023-07-17T02:41:28.080Z,19.49
2023-07-17T02:41:40.102Z,19.47
2023-07-17T02:41:52.223Z,19.48